Time;durP1;ratioP1;P1;durP2;ratioP2;P2;SDS_P1;SDS_P2;PMS_P1;PMS_P2;Temp;Humidity;BMP_temperature;BMP_pressure;BME280_temperature;BME280_humidity;BME280_pressure;Samples;Min_cycle;Max_cycle;Signal;HPM_P1;HPM_P2
2021/07/27 00:01:12;;;;;;;7.45;3.03;;;18.30;91.10;;;18.47;70.26;97500.25;4852641;29;20124;-37
2021/07/27 00:03:41;;;;;;;5.60;3.05;;;18.30;90.70;;;18.49;70.24;97495.47;4852130;29;20072;-37
2021/07/27 00:06:10;;;;;;;6.82;3.28;;;18.30;90.80;;;18.49;70.18;97490.09;4852197;29;20050;-37
2021/07/27 00:08:38;;;;;;;4.82;3.05;;;18.30;91.10;;;18.48;70.16;97491.16;4852251;29;20057;-37
2021/07/27 00:11:11;;;;;;;4.90;3.13;;;18.30;90.90;;;18.49;70.26;97503.56;4852079;29;20057;-37
2021/07/27 00:13:40;;;;;;;5.53;3.17;;;18.30;90.90;;;18.48;70.29;97500.06;4852543;29;20054;-37
2021/07/27 00:16:08;;;;;;;4.10;3.33;;;18.30;90.80;;;18.50;70.18;97495.28;4852259;29;20371;-37
2021/07/27 00:18:36;;;;;;;5.55;3.38;;;18.30;90.80;;;18.54;70.22;97492.16;4852615;29;20067;-37
2021/07/27 00:21:05;;;;;;;5.07;3.40;;;18.40;90.70;;;18.55;70.11;97493.78;4852318;29;20053;-37
2021/07/27 00:23:37;;;;;;;4.70;3.28;;;18.40;90.60;;;18.55;70.09;97489.22;4851368;29;20065;-37
2021/07/27 00:26:15;;;;;;;5.28;3.53;;;18.40;90.50;;;18.55;70.19;97497.31;4853054;29;20062;-37
2021/07/27 00:28:44;;;;;;;7.30;2.97;;;18.40;90.30;;;18.57;70.16;97497.94;4853725;29;20050;-37
2021/07/27 00:31:19;;;;;;;5.20;3.20;;;18.40;90.40;;;18.56;69.97;97493.59;4853698;29;20262;-37
2021/07/27 00:33:49;;;;;;;6.30;3.45;;;18.40;90.30;;;18.58;70.10;97487.97;4854422;29;20060;-37
2021/07/27 00:36:17;;;;;;;6.63;3.33;;;18.50;90.60;;;18.58;70.30;97491.50;4856620;29;20079;-37
2021/07/27 00:38:44;;;;;;;7.38;3.40;;;18.50;90.60;;;18.58;70.28;97488.81;4855383;29;20076;-37
2021/07/27 00:41:12;;;;;;;8.25;3.97;;;18.50;90.50;;;18.58;70.10;97491.50;4856797;29;20240;-37
2021/07/27 00:43:40;;;;;;;6.32;4.07;;;18.40;90.40;;;18.54;70.05;97495.66;4854683;29;20068;-37
2021/07/27 00:46:08;;;;;;;5.82;3.63;;;18.30;90.20;;;18.50;70.10;97495.28;4856980;29;20053;-37
2021/07/27 00:48:36;;;;;;;5.13;3.40;;;18.30;90.50;;;18.45;70.06;97484.28;4856338;29;20061;-37
2021/07/27 00:51:04;;;;;;;7.63;4.93;;;18.20;90.50;;;18.41;69.98;97477.69;4856687;29;20049;-37
2021/07/27 00:53:35;;;;;;;8.57;3.47;;;18.20;90.50;;;18.37;69.98;97481.84;4856101;29;20045;-37
2021/07/27 00:56:06;;;;;;;7.07;3.40;;;18.10;90.70;;;18.35;70.17;97486.63;4854876;29;20378;-37
2021/07/27 00:58:34;;;;;;;5.80;3.00;;;18.10;90.80;;;18.33;70.09;97488.72;4856234;29;20783;-37
2021/07/27 01:01:02;;;;;;;8.15;3.63;;;18.10;90.70;;;18.29;70.13;97484.81;4855155;29;20057;-37
2021/07/27 01:03:30;;;;;;;6.55;3.60;;;18.00;90.80;;;18.25;70.03;97486.28;4855811;29;20065;-37
2021/07/27 01:05:59;;;;;;;5.90;3.70;;;18.00;90.90;;;18.21;70.13;97487.75;4856155;29;20049;-37
2021/07/27 01:08:28;;;;;;;12.45;4.47;;;17.90;90.90;;;18.18;70.14;97488.16;4854787;29;20361;-37
2021/07/27 01:10:56;;;;;;;8.75;4.18;;;18.00;90.90;;;18.18;69.95;97482.78;4854582;29;20033;-37
2021/07/27 01:13:24;;;;;;;4.97;3.50;;;18.00;90.70;;;18.19;70.01;97487.97;4855507;29;20056;-37
2021/07/27 01:15:53;;;;;;;6.13;3.60;;;18.00;90.50;;;18.22;69.99;97486.69;4856884;29;20674;-37
2021/07/27 01:18:26;;;;;;;4.82;3.63;;;18.10;90.50;;;18.24;69.93;97476.53;4855362;29;20398;-37
2021/07/27 01:37:40;;;;;;;6.57;4.10;;;18.10;89.40;;;18.25;69.42;97484.41;4855642;29;20092;-37
2021/07/27 01:40:08;;;;;;;6.25;3.40;;;18.10;89.60;;;18.26;69.48;97487.91;4852718;29;20420;-37
2021/07/27 01:42:39;;;;;;;4.75;3.22;;;18.10;89.80;;;18.24;69.58;97482.78;4854292;29;20053;-37
2021/07/27 01:45:11;;;;;;;6.25;4.00;;;18.10;89.50;;;18.22;69.34;97489.38;4856188;29;20235;-37
2021/07/27 01:47:39;;;;;;;6.97;3.67;;;18.00;89.60;;;18.19;69.41;97487.97;4855823;29;20057;-37
2021/07/27 01:50:07;;;;;;;5.35;3.35;;;17.90;89.80;;;18.17;69.36;97490.03;4854731;29;20058;-37
2021/07/27 01:52:35;;;;;;;4.75;3.53;;;17.90;90.00;;;18.15;69.80;97484.03;4855118;29;20062;-37
2021/07/27 01:55:08;;;;;;;9.10;3.70;;;17.90;90.00;;;18.13;69.51;97488.81;4856037;29;20465;-37
2021/07/27 01:57:36;;;;;;;5.63;4.03;;;17.90;89.90;;;18.10;69.58;97491.94;4853352;29;20072;-37
2021/07/27 02:00:08;;;;;;;7.38;4.18;;;17.90;89.60;;;18.06;69.54;97490.69;4853997;29;20075;-37
2021/07/27 02:02:36;;;;;;;8.60;3.67;;;17.80;89.90;;;18.06;69.66;97493.41;4854190;29;20521;-37
2021/07/27 02:05:09;;;;;;;6.82;4.13;;;17.90;90.00;;;18.03;69.63;97491.97;4853932;29;20051;-37
2021/07/27 02:07:37;;;;;;;5.93;3.40;;;17.90;89.80;;;18.07;69.59;97493.19;4855268;29;20068;-37
2021/07/27 02:10:09;;;;;;;5.50;4.15;;;17.90;89.70;;;18.11;69.60;97490.91;4854531;29;20239;-37
2021/07/27 02:12:39;;;;;;;4.25;3.17;;;18.00;89.60;;;18.14;69.58;97492.34;4854404;29;20388;-37
2021/07/27 02:15:07;;;;;;;4.57;3.13;;;18.00;89.20;;;18.16;69.54;97506.41;4854456;29;20061;-37
2021/07/27 02:17:36;;;;;;;6.32;3.33;;;18.10;89.40;;;18.16;69.25;97501.84;4853821;29;20067;-37
2021/07/27 02:20:06;;;;;;;4.75;3.45;;;18.10;88.90;;;18.18;69.34;97498.94;4852667;29;20151;-37
2021/07/27 02:22:36;;;;;;;4.40;3.42;;;18.10;89.00;;;18.18;69.23;97507.03;4853902;29;20259;-37
2021/07/27 02:25:05;;;;;;;5.05;3.35;;;18.00;88.80;;;18.19;69.35;97506.00;4855760;29;20068;-37
2021/07/27 02:27:34;;;;;;;5.13;3.65;;;18.10;88.70;;;18.16;69.21;97504.53;4854488;29;20351;-37
2021/07/27 02:30:04;;;;;;;6.80;3.50;;;18.10;88.70;;;18.18;69.22;97507.84;4853546;29;20049;-37
2021/07/27 02:32:32;;;;;;;5.82;3.80;;;18.10;88.70;;;18.20;69.18;97504.94;4854039;29;20053;-37
2021/07/27 02:35:00;;;;;;;5.10;3.75;;;18.10;88.70;;;18.21;69.13;97501.22;4854174;29;20367;-37
2021/07/27 02:37:31;;;;;;;4.18;3.17;;;18.10;88.50;;;18.23;69.30;97501.84;4853752;29;20045;-37
2021/07/27 02:39:59;;;;;;;5.28;3.90;;;18.20;88.60;;;18.25;69.28;97492.50;4852358;29;20061;-37
2021/07/27 02:42:27;;;;;;;5.75;4.10;;;18.20;88.50;;;18.23;69.08;97502.66;4852700;29;20061;-37
2021/07/27 02:44:55;;;;;;;5.57;3.80;;;18.10;88.60;;;18.23;69.16;97505.34;4853745;29;20068;-37
2021/07/27 02:47:24;;;;;;;6.72;3.85;;;18.10;88.80;;;18.20;69.12;97505.75;4854492;29;20072;-37
2021/07/27 02:49:53;;;;;;;6.95;3.40;;;18.10;88.90;;;18.18;69.05;97502.47;4851528;29;20061;-37
2021/07/27 02:52:21;;;;;;;5.82;3.88;;;18.10;89.00;;;18.16;69.27;97499.16;4853665;29;20061;-37
2021/07/27 02:54:48;;;;;;;6.85;4.03;;;18.00;89.10;;;18.16;69.33;97496.47;4854348;29;20276;-37
2021/07/27 02:57:16;;;;;;;4.97;4.22;;;18.00;89.20;;;18.12;69.33;97499.81;4852825;29;20053;-37
2021/07/27 02:59:44;;;;;;;6.00;3.80;;;17.90;89.40;;;18.05;69.37;97499.84;4853243;29;20058;-37
2021/07/27 03:02:12;;;;;;;6.78;4.00;;;17.80;89.60;;;18.04;69.41;97500.88;4853102;29;20352;-37
2021/07/27 03:04:40;;;;;;;6.28;3.80;;;17.80;89.70;;;18.00;69.34;97505.84;4852114;29;20206;-37
2021/07/27 03:07:09;;;;;;;6.65;4.18;;;17.70;90.00;;;17.96;69.57;97501.09;4852691;29;20055;-37
2021/07/27 03:10:17;;;;;;;9.13;5.25;;;17.70;90.20;;;17.94;69.69;97500.50;4852812;29;20068;-37
2021/07/27 03:12:26;;;;;;;7.78;3.92;;;17.70;90.30;;;17.91;69.93;97507.09;4852465;29;20049;-37
2021/07/27 03:15:02;;;;;;;6.50;3.83;;;17.70;90.50;;;17.89;69.83;97512.72;4853318;29;20351;-37
2021/07/27 03:17:30;;;;;;;5.30;4.35;;;17.70;90.30;;;17.91;69.95;97517.88;4854146;29;20239;-38
2021/07/27 03:19:58;;;;;;;5.55;4.25;;;17.70;90.40;;;17.95;69.95;97515.59;4855178;29;20053;-37
2021/07/27 03:22:26;;;;;;;8.10;4.75;;;17.80;90.10;;;17.96;69.89;97512.69;4853418;29;20049;-37
2021/07/27 03:24:54;;;;;;;7.13;4.78;;;17.90;89.80;;;17.95;69.95;97512.91;4853499;29;20069;-37
2021/07/27 03:27:22;;;;;;;4.03;3.63;;;17.90;89.90;;;17.97;69.80;97511.66;4852194;29;20351;-37
2021/07/27 03:29:51;;;;;;;5.38;3.63;;;17.80;90.00;;;17.97;69.70;97508.13;4853097;29;20061;-37
2021/07/27 03:32:19;;;;;;;7.80;4.72;;;17.80;89.60;;;17.95;69.69;97510.19;4852348;29;20189;-37
2021/07/27 03:34:47;;;;;;;5.88;4.10;;;17.80;89.90;;;17.98;69.81;97518.69;4849925;29;20060;-37
2021/07/27 03:37:15;;;;;;;6.40;3.60;;;17.80;89.90;;;18.01;69.60;97507.50;4853225;29;20460;-37
2021/07/27 03:39:47;;;;;;;5.05;3.97;;;17.90;89.90;;;18.03;69.54;97510.81;4853841;29;20129;-37
2021/07/27 03:42:15;;;;;;;4.68;3.70;;;17.90;89.50;;;18.06;69.40;97512.25;4853878;29;20069;-37
2021/07/27 03:44:43;;;;;;;6.05;5.05;;;18.00;89.40;;;18.07;69.42;97511.22;4852570;29;20057;-37
2021/07/27 03:47:11;;;;;;;6.25;4.28;;;18.00;89.10;;;18.07;69.20;97513.91;4853511;29;20225;-37
2021/07/27 03:49:39;;;;;;;6.95;3.92;;;18.00;88.80;;;18.10;69.33;97511.59;4853122;29;20466;-37
2021/07/27 03:52:06;;;;;;;4.72;3.78;;;18.00;89.00;;;18.09;69.06;97514.53;4853051;29;20050;-37
2021/07/27 03:54:34;;;;;;;6.95;3.63;;;18.00;88.80;;;18.08;69.15;97519.06;4853413;29;20065;-37
2021/07/27 03:57:06;;;;;;;7.65;4.22;;;18.00;88.80;;;18.08;69.24;97511.00;4851720;29;20289;-37
2021/07/27 03:59:35;;;;;;;7.38;3.55;;;18.00;88.70;;;18.05;69.13;97510.63;4852729;29;20061;-37
2021/07/27 04:02:03;;;;;;;5.78;4.13;;;17.90;88.70;;;17.98;68.91;97507.91;4852291;29;20282;-37
2021/07/27 04:04:35;;;;;;;10.90;3.75;;;17.80;88.70;;;17.96;69.00;97504.63;4851715;29;20068;-37
2021/07/27 04:07:03;;;;;;;5.50;3.70;;;17.80;89.10;;;17.92;69.23;97506.09;4856822;29;20060;-37
2021/07/27 04:09:31;;;;;;;6.15;3.67;;;17.80;89.20;;;17.92;69.23;97503.38;4856971;29;20057;-37
2021/07/27 04:11:59;;;;;;;6.30;4.53;;;17.80;89.20;;;17.90;69.12;97502.78;4856213;29;20053;-37
2021/07/27 04:14:27;;;;;;;7.00;4.25;;;17.80;89.20;;;17.89;69.20;97504.66;4855446;29;20088;-37
2021/07/27 04:16:56;;;;;;;5.38;4.40;;;17.70;89.20;;;17.89;69.13;97501.09;4855064;29;20061;-37
2021/07/27 04:19:24;;;;;;;5.50;3.95;;;17.70;89.50;;;17.89;69.25;97499.25;4856543;29;20385;-37
2021/07/27 04:21:52;;;;;;;7.03;4.20;;;17.70;89.50;;;17.90;69.27;97500.09;4856026;29;20255;-37
2021/07/27 04:24:20;;;;;;;4.85;3.80;;;17.80;89.30;;;17.92;69.20;97502.56;4855251;29;20062;-37
2021/07/27 04:26:48;;;;;;;6.68;4.35;;;17.80;89.20;;;17.93;69.27;97504.22;4856933;29;20057;-37
2021/07/27 04:29:17;;;;;;;5.53;3.85;;;17.80;89.00;;;17.93;69.19;97506.91;4856286;29;20061;-37
2021/07/27 04:31:49;;;;;;;7.18;5.03;;;17.80;89.00;;;17.96;69.17;97506.50;4857108;29;20073;-37
2021/07/27 04:34:17;;;;;;;6.15;4.72;;;17.90;88.70;;;17.94;69.16;97504.00;4854969;29;20061;-37
2021/07/27 04:36:50;;;;;;;6.57;4.15;;;17.80;88.70;;;17.96;69.00;97501.91;4856258;29;20071;-36
2021/07/27 04:39:18;;;;;;;7.93;3.88;;;17.90;88.70;;;17.96;69.06;97506.50;4856631;29;20067;-37
2021/07/27 04:41:46;;;;;;;5.22;4.00;;;17.80;88.60;;;17.96;69.06;97498.41;4856253;29;20077;-37
2021/07/27 04:44:14;;;;;;;5.95;3.65;;;17.90;88.90;;;17.97;69.05;97490.13;4854665;29;20065;-37
2021/07/27 04:46:42;;;;;;;4.72;4.07;;;17.80;88.80;;;17.99;69.12;97497.97;4857582;29;20096;-37
2021/07/27 04:49:16;;;;;;;7.00;5.10;;;17.90;89.00;;;17.98;69.21;97493.63;4856457;29;20057;-37
2021/07/27 04:51:44;;;;;;;6.40;4.10;;;17.90;89.00;;;17.93;69.52;97504.22;4855029;29;20084;-36
2021/07/27 04:54:16;;;;;;;5.05;4.07;;;17.80;89.20;;;17.95;69.37;97496.75;4855516;29;20053;-37
2021/07/27 04:56:44;;;;;;;6.82;4.55;;;17.90;89.50;;;17.95;69.36;97497.59;4857165;29;20072;-37
2021/07/27 04:59:12;;;;;;;6.75;4.38;;;17.80;89.50;;;17.98;69.56;97488.25;4854263;29;20072;-37
2021/07/27 05:01:40;;;;;;;9.20;5.53;;;17.90;89.40;;;17.99;69.51;97492.59;4856306;29;20385;-37
2021/07/27 05:04:08;;;;;;;6.32;4.20;;;17.90;89.40;;;17.96;69.46;97488.44;4856665;29;20049;-37
2021/07/27 05:06:39;;;;;;;6.68;4.10;;;17.90;89.50;;;17.98;69.55;97489.06;4854362;29;20045;-37
2021/07/27 05:09:07;;;;;;;6.07;4.40;;;17.90;89.50;;;18.01;69.56;97488.66;4854086;29;20248;-37
2021/07/27 05:11:35;;;;;;;6.38;4.60;;;17.90;89.40;;;18.06;69.53;97482.63;4854415;29;20379;-37
2021/07/27 05:14:06;;;;;;;5.25;4.65;;;18.00;89.20;;;18.11;69.48;97488.22;4854672;29;20067;-36
2021/07/27 05:16:38;;;;;;;6.80;4.50;;;18.10;89.20;;;18.15;69.48;97484.03;4854489;29;20391;-37
2021/07/27 05:19:06;;;;;;;6.90;4.30;;;18.20;89.00;;;18.19;69.45;97497.91;4854177;29;20061;-36
2021/07/27 05:21:34;;;;;;;7.20;4.93;;;18.20;89.00;;;18.20;69.66;97491.47;4856873;29;20083;-36
2021/07/27 05:24:02;;;;;;;7.25;5.25;;;18.20;89.00;;;18.20;69.48;97492.28;4855723;29;20208;-36
2021/07/27 05:26:30;;;;;;;5.28;4.38;;;18.20;89.20;;;18.21;69.62;97491.25;4854680;29;20061;-36
2021/07/27 05:28:58;;;;;;;6.13;4.22;;;18.20;89.30;;;18.24;69.54;97485.47;4855045;29;20059;-36
2021/07/27 05:31:26;;;;;;;6.22;4.35;;;18.20;89.20;;;18.28;69.58;97486.69;4854107;29;20050;-36
2021/07/27 05:33:54;;;;;;;6.03;4.47;;;18.30;89.30;;;18.30;69.59;97484.59;4855193;29;20060;-36
2021/07/27 05:36:22;;;;;;;7.10;4.53;;;18.30;89.20;;;18.34;69.52;97478.75;4854055;29;20336;-40
2021/07/27 05:38:51;;;;;;;6.47;4.38;;;18.40;88.90;;;18.38;69.48;97475.44;4855108;29;20053;-36
2021/07/27 05:41:19;;;;;;;7.40;4.57;;;18.40;88.50;;;18.45;69.40;97481.59;4853182;29;20065;-36
2021/07/27 05:43:47;;;;;;;7.53;4.25;;;18.50;88.60;;;18.49;69.35;97474.75;4854988;29;20390;-36
2021/07/27 05:46:15;;;;;;;7.97;4.80;;;18.60;88.40;;;18.52;69.18;97481.59;4856525;29;20344;-36
2021/07/27 05:48:45;;;;;;;6.03;4.43;;;18.60;88.10;;;18.55;69.21;97475.75;4855552;29;20062;-36
2021/07/27 05:51:14;;;;;;;5.53;4.25;;;18.60;88.10;;;18.59;69.15;97479.69;4854477;29;20057;-36
2021/07/27 05:53:42;;;;;;;6.97;4.45;;;18.70;88.00;;;18.65;69.10;97484.22;4855455;29;20068;-37
2021/07/27 05:56:10;;;;;;;4.95;4.28;;;18.80;88.00;;;18.69;69.07;97480.03;4855214;29;20053;-36
2021/07/27 05:58:38;;;;;;;7.97;4.43;;;18.80;87.90;;;18.74;69.18;97475.84;4854431;29;20065;-36
2021/07/27 06:01:09;;;;;;;5.32;4.38;;;18.90;87.90;;;18.80;69.10;97475.81;4862783;29;20049;-36
2021/07/27 06:03:37;;;;;;;7.13;4.93;;;19.00;87.70;;;18.83;69.05;97483.50;4854744;29;20077;-36
2021/07/27 06:06:05;;;;;;;5.18;4.10;;;19.00;87.60;;;18.88;69.08;97482.81;4852928;29;20297;-36
2021/07/27 06:08:33;;;;;;;7.15;4.30;;;19.00;87.60;;;18.95;68.95;97478.22;4854085;29;20340;-36
2021/07/27 06:11:05;;;;;;;6.03;4.75;;;19.10;87.50;;;19.03;69.05;97483.34;4853328;29;20083;-36
2021/07/27 06:13:33;;;;;;;7.90;5.05;;;19.30;87.20;;;19.12;68.87;97480.41;4853729;29;20270;-36
2021/07/27 06:16:05;;;;;;;5.60;4.03;;;19.30;87.00;;;19.15;68.61;97485.34;4855215;29;20063;-36
2021/07/27 06:18:34;;;;;;;5.38;3.90;;;19.40;86.50;;;19.19;68.46;97481.16;4854733;29;20069;-36
2021/07/27 06:21:04;;;;;;;7.15;4.47;;;19.40;86.50;;;19.23;68.56;97480.50;4853696;29;20382;-36
2021/07/27 06:23:32;;;;;;;6.25;5.05;;;19.40;86.50;;;19.30;68.70;97482.31;4852527;29;20076;-36
2021/07/27 06:26:05;;;;;;;7.35;5.55;;;19.50;86.80;;;19.36;68.56;97487.66;4854969;29;20374;-36
2021/07/27 06:28:34;;;;;;;7.57;4.32;;;19.60;86.90;;;19.41;68.60;97481.59;4853439;29;20352;-36
2021/07/27 06:31:12;;;;;;;6.55;4.60;;;19.60;86.70;;;19.46;68.44;97485.28;4853410;29;20370;-36
2021/07/27 06:33:42;;;;;;;6.00;4.70;;;19.70;86.50;;;19.49;68.51;97475.91;4851583;29;20072;-36
2021/07/27 06:36:11;;;;;;;7.22;4.07;;;19.70;86.90;;;19.52;68.51;97480.03;4850203;29;20059;-36
2021/07/27 06:38:41;;;;;;;5.55;4.45;;;19.60;86.50;;;19.51;68.30;97475.69;4854031;29;20061;-36
2021/07/27 06:41:10;;;;;;;6.28;3.75;;;19.70;86.50;;;19.53;68.32;97484.41;4852662;29;20059;-36
2021/07/27 06:43:41;;;;;;;5.30;4.10;;;19.70;86.60;;;19.57;68.06;97485.59;4853462;29;20063;-36
2021/07/27 06:46:10;;;;;;;4.95;4.35;;;19.70;86.50;;;19.60;68.45;97490.53;4854853;29;20072;-36
2021/07/27 06:48:39;;;;;;;4.40;4.00;;;19.80;86.70;;;19.62;68.24;97496.56;4853374;29;20071;-37
2021/07/27 06:51:13;;;;;;;6.30;4.75;;;19.80;86.40;;;19.64;68.46;97497.16;4852614;29;20075;-37
2021/07/27 06:53:42;;;;;;;4.97;3.58;;;19.80;86.10;;;19.66;67.93;97497.78;4852613;29;20374;-37
2021/07/27 06:56:11;;;;;;;12.98;5.45;;;19.80;86.10;;;19.67;67.89;97505.63;4853034;29;20258;-37
2021/07/27 06:58:40;;;;;;;6.20;4.22;;;19.80;86.00;;;19.68;67.54;97507.28;4852748;29;20064;-37
2021/07/27 07:01:11;;;;;;;9.18;4.53;;;19.80;86.20;;;19.71;67.81;97510.59;4853929;29;20381;-37
2021/07/27 07:03:41;;;;;;;5.45;4.30;;;19.80;86.20;;;19.69;67.62;97502.72;4854053;29;20057;-37
2021/07/27 07:06:15;;;;;;;6.70;4.25;;;19.80;85.40;;;19.69;67.60;97510.81;4853824;29;20454;-37
2021/07/27 07:08:43;;;;;;;;;;;19.80;86.10;;;19.67;67.84;97511.03;4853905;29;20247;-37
2021/07/27 07:11:11;;;;;;;7.40;3.95;;;19.80;86.00;;;19.74;68.09;97524.50;4852130;29;20091;-37
2021/07/27 07:13:39;;;;;;;6.32;4.82;;;19.90;86.60;;;19.82;67.93;97524.22;4853757;29;20053;-37
2021/07/27 07:16:09;;;;;;;5.07;4.30;;;20.00;86.50;;;19.87;67.98;97523.53;4854383;29;20072;-37
2021/07/27 07:18:37;;;;;;;6.63;4.30;;;20.10;86.40;;;19.90;67.61;97525.81;4852882;29;20046;-37
2021/07/27 07:21:07;;;;;;;6.63;4.32;;;20.10;85.90;;;19.92;67.72;97523.69;4852992;29;20054;-38
2021/07/27 07:23:35;;;;;;;5.30;4.35;;;20.10;85.60;;;19.94;67.70;97529.69;4853042;29;20087;-37
2021/07/27 07:26:06;;;;;;;6.20;4.75;;;20.10;85.60;;;19.97;67.30;97525.75;4852926;29;20267;-38
2021/07/27 07:28:37;;;;;;;6.05;4.07;;;20.10;85.30;;;19.99;66.84;97529.88;4852359;29;20049;-37
2021/07/27 07:31:10;;;;;;;6.10;4.88;;;20.20;84.20;;;20.01;66.56;97527.75;4851888;29;20083;-38
2021/07/27 07:33:38;;;;;;;6.82;4.50;;;20.20;83.90;;;20.06;66.54;97525.22;4854063;29;20377;-37
2021/07/27 07:36:13;;;;;;;4.47;3.70;;;20.30;84.20;;;20.11;67.00;97524.53;4853600;29;20131;-37
2021/07/27 07:38:43;;;;;;;4.80;4.00;;;20.40;83.60;;;20.17;66.01;97520.13;4853463;29;20053;-37
2021/07/27 07:41:11;;;;;;;5.80;3.65;;;20.40;83.10;;;20.20;65.64;97516.94;4853325;29;20260;-37
2021/07/27 07:43:40;;;;;;;6.85;4.55;;;20.50;82.30;;;20.26;65.33;97522.28;4852393;29;20053;-38
2021/07/27 07:46:08;;;;;;;5.63;4.18;;;20.50;82.10;;;20.34;65.09;97521.16;4852434;29;20050;-38
2021/07/27 07:48:36;;;;;;;5.25;3.78;;;20.70;81.80;;;20.43;65.14;97521.66;4852781;29;20058;-38
2021/07/27 07:51:04;;;;;;;5.72;4.53;;;20.80;81.20;;;20.51;64.59;97523.22;4853154;29;20079;-38
2021/07/27 07:53:33;;;;;;;6.50;4.63;;;20.90;80.90;;;20.58;64.59;97530.19;4854229;29;20378;-38
2021/07/27 07:56:02;;;;;;;5.75;4.43;;;20.90;80.20;;;20.63;63.78;97522.25;4853316;29;20053;-38
2021/07/27 07:58:30;;;;;;;4.82;4.05;;;21.00;78.80;;;20.63;62.00;97530.38;4854045;29;20330;-38
2021/07/27 08:00:58;;;;;;;5.25;3.97;;;21.00;76.10;;;20.70;62.00;97530.28;4876050;29;20046;-38
2021/07/27 08:03:26;;;;;;;6.00;4.53;;;21.10;76.40;;;20.75;61.40;97529.59;4878619;29;20073;-38
2021/07/27 08:05:56;;;;;;;6.90;5.18;;;21.10;75.30;;;20.78;61.60;97529.97;4880350;29;20045;-38
2021/07/27 08:08:24;;;;;;;5.82;4.72;;;21.10;75.80;;;20.81;61.33;97532.22;4879650;29;20382;-38
2021/07/27 08:10:52;;;;;;;5.75;4.47;;;21.20;76.20;;;20.85;61.19;97519.06;4879077;29;20486;-38
2021/07/27 08:13:19;;;;;;;5.82;4.38;;;21.20;76.00;;;20.88;61.64;97524.00;4879678;29;20059;-38
2021/07/27 08:15:49;;;;;;;4.95;4.28;;;21.20;76.10;;;20.92;61.25;97525.19;4881743;29;20079;-38
2021/07/27 08:18:21;;;;;;;6.80;5.43;;;21.20;75.80;;;20.94;60.62;97530.38;4878953;29;20056;-36
2021/07/27 08:20:49;;;;;;;5.72;5.13;;;21.30;75.20;;;20.96;60.66;97529.09;4887638;29;20060;-38
2021/07/27 08:23:17;;;;;;;4.95;4.35;;;21.30;74.70;;;20.97;59.55;97524.50;4888020;29;20068;-38
2021/07/27 08:25:45;;;;;;;7.95;4.25;;;21.30;74.10;;;20.94;58.94;97525.78;4889134;29;20061;-38
2021/07/27 08:28:13;;;;;;;6.53;4.43;;;21.20;72.70;;;20.96;58.69;97529.09;4889444;29;20053;-38
2021/07/27 08:30:41;;;;;;;5.72;4.28;;;21.20;72.80;;;21.00;59.95;97524.06;4889621;29;20239;-38
2021/07/27 08:33:09;;;;;;;6.00;4.90;;;21.30;74.00;;;20.98;58.16;97524.28;4888065;29;20405;-38
2021/07/27 08:35:37;;;;;;;5.85;4.53;;;21.30;71.70;;;21.00;58.39;97519.44;4889886;29;20061;-38
2021/07/27 08:38:05;;;;;;;7.25;5.35;;;21.40;72.30;;;21.05;58.29;97524.16;4888327;29;20380;-38
2021/07/27 08:40:38;;;;;;;6.95;5.03;;;21.40;72.30;;;21.09;58.71;97525.34;4890097;29;20056;-38
2021/07/27 08:43:08;;;;;;;6.82;4.95;;;21.40;72.70;;;21.13;58.31;97521.16;4866591;29;20061;-38
2021/07/27 08:45:36;;;;;;;5.15;4.50;;;21.40;72.40;;;21.16;58.99;97527.97;4851841;29;20080;-38
2021/07/27 08:48:22;;;;;;;6.70;5.45;;;21.50;73.00;;;21.16;57.47;97522.56;4852397;29;20058;-38
2021/07/27 08:50:51;;;;;;;6.13;4.65;;;21.50;71.40;;;21.18;58.39;97526.66;4852367;29;20064;-38
2021/07/27 08:53:20;;;;;;;7.22;4.75;;;21.50;72.30;;;21.20;58.08;97521.03;4853610;29;20096;-38
2021/07/27 08:55:48;;;;;;;6.07;4.85;;;21.50;72.10;;;21.21;57.72;97523.50;4855717;29;20057;-38
2021/07/27 08:58:20;;;;;;;6.47;5.28;;;21.50;71.60;;;21.24;58.38;97520.31;4855257;29;20053;-38
2021/07/27 09:00:47;;;;;;;6.68;5.32;;;21.60;71.60;;;21.27;57.91;97518.19;4853670;29;20056;-38
2021/07/27 09:03:18;;;;;;;8.00;4.80;;;21.60;72.00;;;21.29;58.37;97535.06;4855755;29;20064;-38
2021/07/27 09:06:02;;;;;;;5.63;4.63;;;21.60;72.50;;;21.36;58.59;97533.06;4854749;29;20049;-38
2021/07/27 09:08:30;;;;;;;9.00;5.35;;;21.70;72.70;;;21.40;57.84;97524.25;4855446;29;20275;-38
2021/07/27 09:11:01;;;;;;;5.30;4.50;;;21.70;72.10;;;21.43;56.72;97529.22;4853172;29;20057;-38
2021/07/27 09:13:33;;;;;;;5.32;4.65;;;21.70;70.30;;;21.47;57.62;97515.22;4855532;29;20053;-38
2021/07/27 09:16:02;;;;;;;7.10;5.20;;;21.80;70.70;;;21.51;57.77;97516.41;4856394;29;20465;-38
2021/07/27 09:18:30;;;;;;;6.15;5.10;;;21.80;71.30;;;21.56;57.20;97511.13;4854793;29;20050;-38
2021/07/27 09:21:00;;;;;;;6.07;5.20;;;21.90;71.20;;;21.62;57.59;97513.69;4854912;29;20041;-37
2021/07/27 09:23:29;;;;;;;8.93;5.80;;;22.00;71.70;;;21.70;57.97;97514.41;4855098;29;20049;-36
2021/07/27 09:26:00;;;;;;;5.93;5.32;;;22.10;71.80;;;21.75;57.56;97511.78;4855498;29;20064;-37
2021/07/27 09:28:28;;;;;;;6.68;5.75;;;22.20;71.50;;;21.81;57.71;97511.69;4856223;29;20060;-37
2021/07/27 09:31:02;;;;;;;5.82;5.18;;;22.30;72.00;;;21.90;57.85;97514.03;4855247;29;20050;-36
2021/07/27 09:33:35;;;;;;;7.32;4.78;;;22.30;72.00;;;21.97;58.29;97517.44;4854495;29;20065;-37
2021/07/27 09:36:04;;;;;;;8.80;5.65;;;22.40;71.80;;;22.03;57.68;97513.78;4853091;29;20069;-37
2021/07/27 09:38:32;;;;;;;5.85;4.60;;;22.50;71.80;;;22.13;57.99;97516.72;4856575;29;20364;-37
2021/07/27 09:41:07;;;;;;;7.03;4.90;;;22.60;71.80;;;22.27;58.03;97508.34;4873150;29;20297;-37
2021/07/27 09:43:45;;;;;;;7.70;5.35;;;22.80;71.70;;;22.43;57.70;97504.91;4874419;29;20056;-38
2021/07/27 09:46:15;;;;;;;8.30;5.97;;;23.00;71.20;;;22.49;57.49;97514.78;4873732;29;20065;-37
2021/07/27 09:48:45;;;;;;;6.65;4.93;;;23.10;70.50;;;22.61;56.81;97512.03;4873177;29;20059;-37
2021/07/27 09:51:14;;;;;;;6.28;5.22;;;23.20;69.50;;;22.70;56.25;97515.16;4900584;29;20048;-38
2021/07/27 09:53:47;;;;;;;8.07;5.60;;;23.30;69.10;;;22.73;56.17;97512.78;4872354;29;20048;-37
2021/07/27 09:56:16;;;;;;;6.60;4.90;;;23.30;68.10;;;22.72;55.67;97513.88;4874182;29;20057;-37
2021/07/27 09:58:44;;;;;;;5.72;5.05;;;23.20;67.60;;;22.70;54.83;97509.72;4873813;29;20235;-37
2021/07/27 10:01:23;;;;;;;7.88;5.13;;;23.10;67.10;;;22.69;54.97;97508.91;4873635;29;20063;-37
2021/07/27 10:04:03;;;;;;;8.95;5.85;;;23.10;66.40;;;22.69;54.88;97510.81;4900810;29;20067;-37
2021/07/27 10:06:34;;;;;;;6.53;4.78;;;23.10;66.90;;;22.72;54.28;97505.72;4901764;29;20057;-38
2021/07/27 10:09:04;;;;;;;6.28;4.90;;;23.20;65.50;;;22.82;55.18;97502.38;4902518;29;20158;-39
2021/07/27 10:11:42;;;;;;;8.90;5.72;;;23.40;67.40;;;22.96;55.59;97500.19;4871580;29;20061;-38
2021/07/27 10:14:13;;;;;;;5.90;4.95;;;23.60;66.90;;;23.08;54.58;97498.25;4870939;29;20056;-38
2021/07/27 10:16:44;;;;;;;5.18;4.50;;;23.70;65.70;;;23.18;54.88;97503.84;4873538;29;20051;-39
2021/07/27 10:19:22;;;;;;;5.40;4.85;;;23.90;66.60;;;23.31;53.90;97505.41;4872188;29;20302;-38
2021/07/27 10:22:06;;;;;;;6.15;5.10;;;24.00;63.60;;;23.42;52.03;97492.84;4873284;29;20065;-38
2021/07/27 10:24:44;;;;;;;;;;;24.10;61.80;;;23.44;53.41;97492.56;4871773;29;20397;-38
2021/07/27 10:27:24;;;;;;;6.63;5.20;;;24.10;61.20;;;23.53;51.53;97499.25;4872762;29;20125;-38
2021/07/27 10:30:31;;;;;;;6.80;5.05;;;24.10;62.80;;;23.61;51.47;97490.66;4871819;29;20377;-36
2021/07/27 10:33:02;;;;;;;7.38;5.22;;;24.30;60.80;;;23.75;52.08;97502.84;4869334;29;20071;-37
2021/07/27 10:35:33;;;;;;;6.22;5.10;;;24.40;63.70;;;23.87;51.44;97493.81;4871582;29;20068;-37
2021/07/27 10:38:12;;;;;;;7.22;5.50;;;24.50;62.20;;;23.94;51.16;97494.44;4872089;29;20052;-37
2021/07/27 10:40:43;;;;;;;5.53;4.97;;;24.60;59.80;;;24.02;51.47;97498.59;4900747;29;20065;-37
2021/07/27 10:43:25;;;;;;;8.68;5.00;;;24.60;60.70;;;24.03;50.58;97497.56;4871772;29;20053;-37
2021/07/27 10:46:00;;;;;;;5.90;4.78;;;24.60;60.70;;;24.06;50.74;97487.00;4873513;29;20057;-37
2021/07/27 10:48:35;;;;;;;6.13;4.75;;;24.60;60.10;;;24.15;50.29;97493.63;4872621;29;20551;-38